sensor_id;sensor_type;location;lat;lon;timestamp;P1;durP1;ratioP1;P2;durP2;ratioP2
52530;SDS011;38441;52.894;6.040;2023-06-10T00:01:35;8.95;;;4.28;;
52530;SDS011;38441;52.894;6.040;2023-06-10T00:04:01;8.65;;;4.07;;
52530;SDS011;38441;52.894;6.040;2023-06-10T00:06:28;7.57;;;4.10;;
52530;SDS011;38441;52.894;6.040;2023-06-10T00:09:00;8.60;;;4.05;;
52530;SDS011;38441;52.894;6.040;2023-06-10T00:11:30;8.75;;;3.90;;
52530;SDS011;38441;52.894;6.040;2023-06-10T00:13:57;8.38;;;4.35;;
52530;SDS011;38441;52.894;6.040;2023-06-10T00:16:22;8.50;;;4.20;;
52530;SDS011;38441;52.894;6.040;2023-06-10T00:18:48;6.80;;;3.63;;
52530;SDS011;38441;52.894;6.040;2023-06-10T00:21:16;8.68;;;3.80;;
52530;SDS011;38441;52.894;6.040;2023-06-10T00:23:42;9.73;;;4.68;;
52530;SDS011;38441;52.894;6.040;2023-06-10T00:26:08;6.70;;;3.83;;
52530;SDS011;38441;52.894;6.040;2023-06-10T00:28:34;8.77;;;4.90;;
52530;SDS011;38441;52.894;6.040;2023-06-10T00:30:59;8.80;;;3.80;;
52530;SDS011;38441;52.894;6.040;2023-06-10T00:33:25;9.50;;;4.10;;
52530;SDS011;38441;52.894;6.040;2023-06-10T00:35:51;9.43;;;4.10;;
52530;SDS011;38441;52.894;6.040;2023-06-10T00:38:16;8.23;;;4.38;;
52530;SDS011;38441;52.894;6.040;2023-06-10T00:40:42;9.20;;;4.18;;
52530;SDS011;38441;52.894;6.040;2023-06-10T00:43:08;6.72;;;3.80;;
52530;SDS011;38441;52.894;6.040;2023-06-10T00:45:34;7.63;;;4.10;;
52530;SDS011;38441;52.894;6.040;2023-06-10T00:48:00;8.38;;;4.38;;
52530;SDS011;38441;52.894;6.040;2023-06-10T00:50:26;6.95;;;3.83;;
52530;SDS011;38441;52.894;6.040;2023-06-10T00:52:53;6.93;;;3.40;;
52530;SDS011;38441;52.894;6.040;2023-06-10T00:55:19;8.55;;;4.13;;
52530;SDS011;38441;52.894;6.040;2023-06-10T00:57:46;7.38;;;4.10;;
52530;SDS011;38441;52.894;6.040;2023-06-10T01:00:13;8.13;;;4.25;;
52530;SDS011;38441;52.894;6.040;2023-06-10T01:02:40;8.02;;;3.70;;
52530;SDS011;38441;52.894;6.040;2023-06-10T01:05:06;7.80;;;4.72;;
52530;SDS011;38441;52.894;6.040;2023-06-10T01:07:36;8.57;;;4.68;;
52530;SDS011;38441;52.894;6.040;2023-06-10T01:10:19;8.02;;;4.45;;
52530;SDS011;38441;52.894;6.040;2023-06-10T01:12:55;9.52;;;4.00;;
52530;SDS011;38441;52.894;6.040;2023-06-10T01:15:32;9.05;;;3.72;;
52530;SDS011;38441;52.894;6.040;2023-06-10T01:17:59;8.38;;;3.80;;
52530;SDS011;38441;52.894;6.040;2023-06-10T01:20:27;8.55;;;4.38;;
52530;SDS011;38441;52.894;6.040;2023-06-10T01:22:54;7.65;;;4.18;;
52530;SDS011;38441;52.894;6.040;2023-06-10T01:25:20;9.70;;;4.70;;
52530;SDS011;38441;52.894;6.040;2023-06-10T01:30:45;8.45;;;4.10;;
52530;SDS011;38441;52.894;6.040;2023-06-10T01:33:35;8.73;;;4.07;;
52530;SDS011;38441;52.894;6.040;2023-06-10T01:36:04;10.45;;;4.30;;
52530;SDS011;38441;52.894;6.040;2023-06-10T01:38:30;9.02;;;4.95;;
52530;SDS011;38441;52.894;6.040;2023-06-10T01:41:01;10.93;;;4.27;;
52530;SDS011;38441;52.894;6.040;2023-06-10T01:43:28;7.05;;;3.80;;
52530;SDS011;38441;52.894;6.040;2023-06-10T01:45:53;7.60;;;3.95;;
52530;SDS011;38441;52.894;6.040;2023-06-10T01:48:19;8.65;;;4.13;;
52530;SDS011;38441;52.894;6.040;2023-06-10T01:50:45;8.43;;;4.40;;
52530;SDS011;38441;52.894;6.040;2023-06-10T01:53:10;9.13;;;3.92;;
52530;SDS011;38441;52.894;6.040;2023-06-10T01:55:36;11.82;;;4.15;;
52530;SDS011;38441;52.894;6.040;2023-06-10T01:58:01;10.43;;;4.43;;
52530;SDS011;38441;52.894;6.040;2023-06-10T02:00:27;6.22;;;3.33;;
52530;SDS011;38441;52.894;6.040;2023-06-10T02:02:53;9.90;;;4.50;;
52530;SDS011;38441;52.894;6.040;2023-06-10T02:05:18;7.45;;;4.18;;
52530;SDS011;38441;52.894;6.040;2023-06-10T02:07:44;7.45;;;3.80;;
52530;SDS011;38441;52.894;6.040;2023-06-10T02:10:10;8.40;;;4.30;;
52530;SDS011;38441;52.894;6.040;2023-06-10T02:12:35;6.95;;;4.13;;
52530;SDS011;38441;52.894;6.040;2023-06-10T02:15:01;7.95;;;4.18;;
52530;SDS011;38441;52.894;6.040;2023-06-10T02:17:27;7.63;;;4.18;;
52530;SDS011;38441;52.894;6.040;2023-06-10T02:19:53;9.85;;;4.35;;
52530;SDS011;38441;52.894;6.040;2023-06-10T02:22:22;9.93;;;4.63;;
52530;SDS011;38441;52.894;6.040;2023-06-10T02:24:48;9.55;;;4.22;;
52530;SDS011;38441;52.894;6.040;2023-06-10T02:27:15;7.95;;;3.85;;
52530;SDS011;38441;52.894;6.040;2023-06-10T02:29:41;8.48;;;4.10;;
52530;SDS011;38441;52.894;6.040;2023-06-10T02:32:07;6.95;;;4.00;;
52530;SDS011;38441;52.894;6.040;2023-06-10T02:34:33;9.15;;;4.63;;
52530;SDS011;38441;52.894;6.040;2023-06-10T02:36:58;8.52;;;3.95;;
52530;SDS011;38441;52.894;6.040;2023-06-10T02:39:24;7.78;;;4.45;;
52530;SDS011;38441;52.894;6.040;2023-06-10T02:41:50;7.00;;;4.13;;
52530;SDS011;38441;52.894;6.040;2023-06-10T02:44:17;7.95;;;4.43;;
52530;SDS011;38441;52.894;6.040;2023-06-10T02:46:43;8.57;;;4.20;;
52530;SDS011;38441;52.894;6.040;2023-06-10T02:49:09;7.57;;;4.20;;
52530;SDS011;38441;52.894;6.040;2023-06-10T02:51:34;6.05;;;4.03;;
52530;SDS011;38441;52.894;6.040;2023-06-10T02:54:01;6.85;;;4.15;;
52530;SDS011;38441;52.894;6.040;2023-06-10T02:56:26;7.47;;;3.70;;
52530;SDS011;38441;52.894;6.040;2023-06-10T02:58:52;7.75;;;3.90;;
52530;SDS011;38441;52.894;6.040;2023-06-10T03:01:18;5.97;;;3.83;;
52530;SDS011;38441;52.894;6.040;2023-06-10T03:03:44;11.10;;;4.53;;
52530;SDS011;38441;52.894;6.040;2023-06-10T03:06:11;9.52;;;4.80;;
52530;SDS011;38441;52.894;6.040;2023-06-10T03:08:38;9.15;;;4.30;;
52530;SDS011;38441;52.894;6.040;2023-06-10T03:11:04;8.90;;;4.70;;
52530;SDS011;38441;52.894;6.040;2023-06-10T03:13:29;9.93;;;4.05;;
52530;SDS011;38441;52.894;6.040;2023-06-10T03:15:55;8.73;;;4.13;;
52530;SDS011;38441;52.894;6.040;2023-06-10T03:18:21;7.10;;;3.90;;
52530;SDS011;38441;52.894;6.040;2023-06-10T03:20:51;7.32;;;3.30;;
52530;SDS011;38441;52.894;6.040;2023-06-10T03:23:16;7.93;;;4.07;;
52530;SDS011;38441;52.894;6.040;2023-06-10T03:25:43;9.38;;;4.30;;
52530;SDS011;38441;52.894;6.040;2023-06-10T03:28:09;7.22;;;4.00;;
52530;SDS011;38441;52.894;6.040;2023-06-10T03:30:35;8.15;;;4.18;;
52530;SDS011;38441;52.894;6.040;2023-06-10T03:33:00;8.25;;;4.05;;
52530;SDS011;38441;52.894;6.040;2023-06-10T03:35:26;10.30;;;4.65;;
52530;SDS011;38441;52.894;6.040;2023-06-10T03:37:52;7.70;;;4.20;;
52530;SDS011;38441;52.894;6.040;2023-06-10T03:40:17;8.05;;;4.32;;
52530;SDS011;38441;52.894;6.040;2023-06-10T03:42:43;7.05;;;4.13;;
52530;SDS011;38441;52.894;6.040;2023-06-10T03:45:09;8.10;;;4.43;;
52530;SDS011;38441;52.894;6.040;2023-06-10T03:47:35;6.80;;;3.60;;
52530;SDS011;38441;52.894;6.040;2023-06-10T03:50:02;7.03;;;3.63;;
52530;SDS011;38441;52.894;6.040;2023-06-10T03:52:28;8.32;;;3.97;;
52530;SDS011;38441;52.894;6.040;2023-06-10T03:54:54;8.38;;;3.63;;
52530;SDS011;38441;52.894;6.040;2023-06-10T03:57:20;7.60;;;3.97;;
52530;SDS011;38441;52.894;6.040;2023-06-10T03:59:45;8.15;;;3.80;;
52530;SDS011;38441;52.894;6.040;2023-06-10T04:02:11;7.70;;;4.35;;
52530;SDS011;38441;52.894;6.040;2023-06-10T04:04:37;8.05;;;4.18;;
52530;SDS011;38441;52.894;6.040;2023-06-10T04:07:03;7.10;;;3.58;;
52530;SDS011;38441;52.894;6.040;2023-06-10T04:09:33;6.70;;;3.83;;
52530;SDS011;38441;52.894;6.040;2023-06-10T04:11:58;9.93;;;3.97;;
52530;SDS011;38441;52.894;6.040;2023-06-10T04:14:24;10.38;;;4.47;;
52530;SDS011;38441;52.894;6.040;2023-06-10T04:16:50;8.48;;;4.05;;
52530;SDS011;38441;52.894;6.040;2023-06-10T04:19:16;8.20;;;3.92;;
52530;SDS011;38441;52.894;6.040;2023-06-10T04:21:42;10.00;;;4.05;;
52530;SDS011;38441;52.894;6.040;2023-06-10T04:24:07;7.00;;;3.70;;
52530;SDS011;38441;52.894;6.040;2023-06-10T04:26:34;7.53;;;3.75;;
52530;SDS011;38441;52.894;6.040;2023-06-10T04:29:00;6.63;;;3.63;;
52530;SDS011;38441;52.894;6.040;2023-06-10T04:31:26;7.72;;;3.65;;
52530;SDS011;38441;52.894;6.040;2023-06-10T04:33:52;7.25;;;4.10;;
52530;SDS011;38441;52.894;6.040;2023-06-10T04:36:18;8.18;;;3.65;;
52530;SDS011;38441;52.894;6.040;2023-06-10T04:38:44;9.07;;;3.90;;
52530;SDS011;38441;52.894;6.040;2023-06-10T04:41:10;7.40;;;3.70;;
52530;SDS011;38441;52.894;6.040;2023-06-10T04:43:36;9.02;;;3.80;;
52530;SDS011;38441;52.894;6.040;2023-06-10T04:46:02;8.70;;;4.10;;
52530;SDS011;38441;52.894;6.040;2023-06-10T04:48:27;9.00;;;3.97;;
52530;SDS011;38441;52.894;6.040;2023-06-10T04:50:53;6.85;;;3.70;;
52530;SDS011;38441;52.894;6.040;2023-06-10T04:53:18;7.22;;;4.18;;
52530;SDS011;38441;52.894;6.040;2023-06-10T04:55:45;7.65;;;3.47;;
52530;SDS011;38441;52.894;6.040;2023-06-10T04:58:11;8.48;;;3.75;;
52530;SDS011;38441;52.894;6.040;2023-06-10T05:00:36;7.40;;;3.63;;
52530;SDS011;38441;52.894;6.040;2023-06-10T05:03:02;8.38;;;3.45;;
52530;SDS011;38441;52.894;6.040;2023-06-10T05:05:28;8.02;;;4.05;;
52530;SDS011;38441;52.894;6.040;2023-06-10T05:07:53;6.55;;;3.50;;
52530;SDS011;38441;52.894;6.040;2023-06-10T05:10:19;6.75;;;3.15;;
52530;SDS011;38441;52.894;6.040;2023-06-10T05:12:45;11.55;;;4.18;;
52530;SDS011;38441;52.894;6.040;2023-06-10T05:15:10;9.05;;;3.75;;
52530;SDS011;38441;52.894;6.040;2023-06-10T05:17:36;8.70;;;3.80;;
52530;SDS011;38441;52.894;6.040;2023-06-10T05:20:02;6.88;;;3.35;;
52530;SDS011;38441;52.894;6.040;2023-06-10T05:22:29;7.90;;;3.42;;
52530;SDS011;38441;52.894;6.040;2023-06-10T05:24:55;7.97;;;4.03;;
52530;SDS011;38441;52.894;6.040;2023-06-10T05:27:21;8.77;;;3.70;;
52530;SDS011;38441;52.894;6.040;2023-06-10T05:29:47;6.90;;;4.00;;
52530;SDS011;38441;52.894;6.040;2023-06-10T05:32:12;7.55;;;3.38;;
52530;SDS011;38441;52.894;6.040;2023-06-10T05:34:38;6.38;;;3.60;;
52530;SDS011;38441;52.894;6.040;2023-06-10T05:37:04;6.63;;;4.00;;
52530;SDS011;38441;52.894;6.040;2023-06-10T05:39:30;7.43;;;3.67;;
52530;SDS011;38441;52.894;6.040;2023-06-10T05:41:56;9.52;;;3.72;;
52530;SDS011;38441;52.894;6.040;2023-06-10T05:44:23;8.38;;;3.95;;
52530;SDS011;38441;52.894;6.040;2023-06-10T05:46:49;9.00;;;3.72;;
52530;SDS011;38441;52.894;6.040;2023-06-10T05:49:15;8.18;;;3.60;;
52530;SDS011;38441;52.894;6.040;2023-06-10T05:51:41;7.88;;;3.65;;
52530;SDS011;38441;52.894;6.040;2023-06-10T05:54:07;8.45;;;3.78;;
52530;SDS011;38441;52.894;6.040;2023-06-10T05:56:32;6.53;;;3.80;;
52530;SDS011;38441;52.894;6.040;2023-06-10T05:58:58;9.23;;;3.78;;
52530;SDS011;38441;52.894;6.040;2023-06-10T06:01:24;6.93;;;3.28;;
52530;SDS011;38441;52.894;6.040;2023-06-10T06:03:50;11.77;;;3.90;;
52530;SDS011;38441;52.894;6.040;2023-06-10T06:06:15;8.57;;;3.15;;
52530;SDS011;38441;52.894;6.040;2023-06-10T06:08:41;8.98;;;3.83;;
52530;SDS011;38441;52.894;6.040;2023-06-10T06:11:07;12.55;;;4.30;;
52530;SDS011;38441;52.894;6.040;2023-06-10T06:13:32;7.47;;;3.78;;
52530;SDS011;38441;52.894;6.040;2023-06-10T06:15:58;7.63;;;4.05;;
52530;SDS011;38441;52.894;6.040;2023-06-10T06:18:24;7.45;;;3.45;;
52530;SDS011;38441;52.894;6.040;2023-06-10T06:20:49;9.50;;;3.95;;
52530;SDS011;38441;52.894;6.040;2023-06-10T06:23:15;8.05;;;3.33;;
52530;SDS011;38441;52.894;6.040;2023-06-10T06:25:41;9.40;;;3.92;;
52530;SDS011;38441;52.894;6.040;2023-06-10T06:28:06;7.20;;;3.40;;
52530;SDS011;38441;52.894;6.040;2023-06-10T06:30:34;9.52;;;4.00;;
52530;SDS011;38441;52.894;6.040;2023-06-10T06:33:00;8.60;;;3.72;;
52530;SDS011;38441;52.894;6.040;2023-06-10T06:35:26;7.47;;;3.63;;
52530;SDS011;38441;52.894;6.040;2023-06-10T06:37:51;7.18;;;3.70;;
52530;SDS011;38441;52.894;6.040;2023-06-10T06:40:17;8.45;;;3.97;;
52530;SDS011;38441;52.894;6.040;2023-06-10T06:42:43;9.68;;;3.70;;
52530;SDS011;38441;52.894;6.040;2023-06-10T06:45:09;8.18;;;3.83;;
52530;SDS011;38441;52.894;6.040;2023-06-10T06:47:35;10.95;;;3.85;;
52530;SDS011;38441;52.894;6.040;2023-06-10T06:50:00;9.18;;;3.78;;
52530;SDS011;38441;52.894;6.040;2023-06-10T06:52:27;8.70;;;3.60;;
52530;SDS011;38441;52.894;6.040;2023-06-10T06:54:53;8.50;;;3.40;;
52530;SDS011;38441;52.894;6.040;2023-06-10T06:57:19;11.65;;;3.78;;
52530;SDS011;38441;52.894;6.040;2023-06-10T06:59:44;11.13;;;3.90;;
52530;SDS011;38441;52.894;6.040;2023-06-10T07:05:36;7.85;;;3.50;;
52530;SDS011;38441;52.894;6.040;2023-06-10T07:08:05;6.07;;;3.42;;
52530;SDS011;38441;52.894;6.040;2023-06-10T07:10:30;9.32;;;3.28;;
52530;SDS011;38441;52.894;6.040;2023-06-10T07:12:56;7.40;;;3.20;;
52530;SDS011;38441;52.894;6.040;2023-06-10T07:15:22;8.57;;;3.75;;
52530;SDS011;38441;52.894;6.040;2023-06-10T07:17:47;10.60;;;3.72;;
52530;SDS011;38441;52.894;6.040;2023-06-10T07:20:13;7.25;;;3.58;;
52530;SDS011;38441;52.894;6.040;2023-06-10T07:22:40;5.82;;;3.65;;
52530;SDS011;38441;52.894;6.040;2023-06-10T07:25:07;8.25;;;3.58;;
52530;SDS011;38441;52.894;6.040;2023-06-10T07:27:32;7.47;;;3.22;;
52530;SDS011;38441;52.894;6.040;2023-06-10T07:29:58;7.32;;;3.72;;
52530;SDS011;38441;52.894;6.040;2023-06-10T07:32:25;7.75;;;3.72;;
52530;SDS011;38441;52.894;6.040;2023-06-10T07:34:51;10.63;;;3.70;;
52530;SDS011;38441;52.894;6.040;2023-06-10T07:37:17;6.53;;;3.60;;
52530;SDS011;38441;52.894;6.040;2023-06-10T07:39:44;6.30;;;3.20;;
52530;SDS011;38441;52.894;6.040;2023-06-10T07:42:10;8.40;;;3.08;;
52530;SDS011;38441;52.894;6.040;2023-06-10T07:44:36;6.18;;;3.00;;
52530;SDS011;38441;52.894;6.040;2023-06-10T07:47:01;8.02;;;3.72;;
52530;SDS011;38441;52.894;6.040;2023-06-10T07:49:27;13.13;;;3.78;;
52530;SDS011;38441;52.894;6.040;2023-06-10T07:51:53;7.22;;;2.75;;
52530;SDS011;38441;52.894;6.040;2023-06-10T07:54:20;6.20;;;3.15;;
52530;SDS011;38441;52.894;6.040;2023-06-10T07:56:46;9.02;;;3.53;;
52530;SDS011;38441;52.894;6.040;2023-06-10T07:59:13;8.20;;;3.42;;
52530;SDS011;38441;52.894;6.040;2023-06-10T08:01:39;6.55;;;3.42;;
52530;SDS011;38441;52.894;6.040;2023-06-10T08:04:05;7.53;;;3.03;;
52530;SDS011;38441;52.894;6.040;2023-06-10T08:06:31;6.97;;;3.28;;
52530;SDS011;38441;52.894;6.040;2023-06-10T08:08:56;8.02;;;2.70;;
52530;SDS011;38441;52.894;6.040;2023-06-10T08:11:22;6.30;;;3.33;;
52530;SDS011;38441;52.894;6.040;2023-06-10T08:13:47;7.07;;;3.13;;
52530;SDS011;38441;52.894;6.040;2023-06-10T08:16:13;8.38;;;2.63;;
52530;SDS011;38441;52.894;6.040;2023-06-10T08:18:39;6.97;;;2.55;;
52530;SDS011;38441;52.894;6.040;2023-06-10T08:21:05;5.50;;;2.90;;
52530;SDS011;38441;52.894;6.040;2023-06-10T08:23:30;6.25;;;3.13;;
52530;SDS011;38441;52.894;6.040;2023-06-10T08:25:56;6.32;;;2.80;;
52530;SDS011;38441;52.894;6.040;2023-06-10T08:28:23;5.53;;;2.75;;
52530;SDS011;38441;52.894;6.040;2023-06-10T08:30:48;7.70;;;2.60;;
52530;SDS011;38441;52.894;6.040;2023-06-10T08:33:14;6.50;;;2.53;;
52530;SDS011;38441;52.894;6.040;2023-06-10T08:35:57;5.68;;;2.72;;
52530;SDS011;38441;52.894;6.040;2023-06-10T08:38:23;7.32;;;2.70;;
52530;SDS011;38441;52.894;6.040;2023-06-10T08:40:49;7.53;;;3.25;;
52530;SDS011;38441;52.894;6.040;2023-06-10T08:43:42;7.20;;;3.08;;
52530;SDS011;38441;52.894;6.040;2023-06-10T08:46:10;7.05;;;3.10;;
52530;SDS011;38441;52.894;6.040;2023-06-10T08:48:41;8.25;;;2.95;;
52530;SDS011;38441;52.894;6.040;2023-06-10T08:51:09;6.65;;;2.90;;
52530;SDS011;38441;52.894;6.040;2023-06-10T08:53:36;7.35;;;2.83;;
52530;SDS011;38441;52.894;6.040;2023-06-10T08:56:07;5.65;;;2.63;;
52530;SDS011;38441;52.894;6.040;2023-06-10T08:58:35;4.88;;;2.72;;
52530;SDS011;38441;52.894;6.040;2023-06-10T09:01:07;6.45;;;2.38;;
52530;SDS011;38441;52.894;6.040;2023-06-10T09:03:35;9.07;;;2.75;;
52530;SDS011;38441;52.894;6.040;2023-06-10T09:06:04;10.07;;;3.05;;
52530;SDS011;38441;52.894;6.040;2023-06-10T09:08:30;12.40;;;2.90;;
52530;SDS011;38441;52.894;6.040;2023-06-10T09:10:56;7.43;;;2.72;;
52530;SDS011;38441;52.894;6.040;2023-06-10T09:13:22;5.97;;;2.60;;
52530;SDS011;38441;52.894;6.040;2023-06-10T09:15:48;6.53;;;2.47;;
52530;SDS011;38441;52.894;6.040;2023-06-10T09:18:16;7.70;;;2.88;;
52530;SDS011;38441;52.894;6.040;2023-06-10T09:20:43;6.32;;;2.75;;
52530;SDS011;38441;52.894;6.040;2023-06-10T09:23:08;6.95;;;2.65;;
52530;SDS011;38441;52.894;6.040;2023-06-10T09:25:35;6.78;;;2.45;;
52530;SDS011;38441;52.894;6.040;2023-06-10T09:28:02;8.50;;;2.83;;
52530;SDS011;38441;52.894;6.040;2023-06-10T09:30:30;4.25;;;2.15;;
52530;SDS011;38441;52.894;6.040;2023-06-10T09:33:03;5.43;;;2.40;;
52530;SDS011;38441;52.894;6.040;2023-06-10T09:35:35;5.35;;;2.67;;
52530;SDS011;38441;52.894;6.040;2023-06-10T09:38:01;4.55;;;2.28;;
52530;SDS011;38441;52.894;6.040;2023-06-10T09:40:27;5.60;;;2.38;;
52530;SDS011;38441;52.894;6.040;2023-06-10T09:42:54;7.18;;;3.30;;
52530;SDS011;38441;52.894;6.040;2023-06-10T09:45:31;4.55;;;2.55;;
52530;SDS011;38441;52.894;6.040;2023-06-10T09:47:57;8.10;;;3.35;;
52530;SDS011;38441;52.894;6.040;2023-06-10T09:50:23;4.97;;;2.40;;
52530;SDS011;38441;52.894;6.040;2023-06-10T09:52:50;6.00;;;2.78;;
52530;SDS011;38441;52.894;6.040;2023-06-10T09:55:16;7.85;;;2.60;;
52530;SDS011;38441;52.894;6.040;2023-06-10T09:57:42;6.93;;;2.40;;
52530;SDS011;38441;52.894;6.040;2023-06-10T10:00:12;11.30;;;3.00;;
52530;SDS011;38441;52.894;6.040;2023-06-10T10:02:49;6.97;;;2.50;;
52530;SDS011;38441;52.894;6.040;2023-06-10T10:05:16;8.15;;;2.72;;
52530;SDS011;38441;52.894;6.040;2023-06-10T10:07:45;6.60;;;2.90;;
52530;SDS011;38441;52.894;6.040;2023-06-10T10:10:12;6.07;;;2.40;;
52530;SDS011;38441;52.894;6.040;2023-06-10T10:12:39;5.20;;;2.40;;
52530;SDS011;38441;52.894;6.040;2023-06-10T10:15:07;5.00;;;2.10;;
52530;SDS011;38441;52.894;6.040;2023-06-10T10:17:38;4.57;;;2.30;;
52530;SDS011;38441;52.894;6.040;2023-06-10T10:20:08;4.68;;;2.20;;
52530;SDS011;38441;52.894;6.040;2023-06-10T10:22:38;4.68;;;2.60;;
52530;SDS011;38441;52.894;6.040;2023-06-10T10:25:11;6.30;;;2.60;;
52530;SDS011;38441;52.894;6.040;2023-06-10T10:27:44;4.18;;;2.63;;
52530;SDS011;38441;52.894;6.040;2023-06-10T10:30:16;6.60;;;2.50;;
52530;SDS011;38441;52.894;6.040;2023-06-10T10:33:19;7.50;;;2.28;;
52530;SDS011;38441;52.894;6.040;2023-06-10T10:35:56;4.15;;;2.25;;
52530;SDS011;38441;52.894;6.040;2023-06-10T10:38:23;3.95;;;1.90;;
52530;SDS011;38441;52.894;6.040;2023-06-10T10:40:49;4.43;;;2.13;;
52530;SDS011;38441;52.894;6.040;2023-06-10T10:43:16;3.70;;;1.88;;
52530;SDS011;38441;52.894;6.040;2023-06-10T10:45:41;4.03;;;2.15;;
52530;SDS011;38441;52.894;6.040;2023-06-10T10:48:10;6.57;;;2.20;;
52530;SDS011;38441;52.894;6.040;2023-06-10T10:50:37;3.92;;;1.95;;
52530;SDS011;38441;52.894;6.040;2023-06-10T10:53:03;4.75;;;1.85;;
52530;SDS011;38441;52.894;6.040;2023-06-10T10:55:30;7.93;;;2.10;;
52530;SDS011;38441;52.894;6.040;2023-06-10T10:58:03;5.07;;;2.10;;
52530;SDS011;38441;52.894;6.040;2023-06-10T11:00:33;4.35;;;1.80;;
52530;SDS011;38441;52.894;6.040;2023-06-10T11:08:00;6.15;;;2.33;;
52530;SDS011;38441;52.894;6.040;2023-06-10T11:10:33;5.45;;;1.75;;
52530;SDS011;38441;52.894;6.040;2023-06-10T11:13:21;3.53;;;1.58;;
52530;SDS011;38441;52.894;6.040;2023-06-10T11:15:48;3.38;;;1.70;;
52530;SDS011;38441;52.894;6.040;2023-06-10T11:18:38;5.20;;;1.70;;
52530;SDS011;38441;52.894;6.040;2023-06-10T11:21:13;3.60;;;1.75;;
52530;SDS011;38441;52.894;6.040;2023-06-10T11:23:42;4.40;;;1.92;;
52530;SDS011;38441;52.894;6.040;2023-06-10T11:26:18;5.05;;;2.10;;
52530;SDS011;38441;52.894;6.040;2023-06-10T11:31:19;3.35;;;1.83;;
52530;SDS011;38441;52.894;6.040;2023-06-10T11:33:48;5.85;;;2.08;;
52530;SDS011;38441;52.894;6.040;2023-06-10T11:36:24;6.65;;;1.98;;
52530;SDS011;38441;52.894;6.040;2023-06-10T11:38:53;4.65;;;1.90;;
52530;SDS011;38441;52.894;6.040;2023-06-10T11:41:21;3.78;;;2.05;;
52530;SDS011;38441;52.894;6.040;2023-06-10T11:43:48;6.32;;;1.70;;
52530;SDS011;38441;52.894;6.040;2023-06-10T11:46:14;3.30;;;1.90;;
52530;SDS011;38441;52.894;6.040;2023-06-10T11:48:53;3.95;;;1.73;;
52530;SDS011;38441;52.894;6.040;2023-06-10T11:51:25;4.88;;;1.60;;
52530;SDS011;38441;52.894;6.040;2023-06-10T11:53:52;4.88;;;1.33;;
52530;SDS011;38441;52.894;6.040;2023-06-10T11:56:22;4.18;;;2.25;;
52530;SDS011;38441;52.894;6.040;2023-06-10T11:58:54;3.92;;;2.05;;
52530;SDS011;38441;52.894;6.040;2023-06-10T12:01:29;3.85;;;1.85;;
52530;SDS011;38441;52.894;6.040;2023-06-10T12:04:11;4.38;;;1.70;;
52530;SDS011;38441;52.894;6.040;2023-06-10T12:06:47;3.95;;;1.63;;
52530;SDS011;38441;52.894;6.040;2023-06-10T12:11:44;4.57;;;1.70;;
52530;SDS011;38441;52.894;6.040;2023-06-10T12:14:10;3.13;;;1.48;;
52530;SDS011;38441;52.894;6.040;2023-06-10T12:16:36;3.40;;;1.75;;
52530;SDS011;38441;52.894;6.040;2023-06-10T12:19:02;3.83;;;1.67;;
52530;SDS011;38441;52.894;6.040;2023-06-10T12:21:29;3.92;;;1.58;;
52530;SDS011;38441;52.894;6.040;2023-06-10T12:24:14;4.20;;;1.65;;
52530;SDS011;38441;52.894;6.040;2023-06-10T12:26:42;2.53;;;1.60;;
52530;SDS011;38441;52.894;6.040;2023-06-10T12:29:13;4.80;;;1.60;;
52530;SDS011;38441;52.894;6.040;2023-06-10T12:31:54;3.88;;;1.60;;
52530;SDS011;38441;52.894;6.040;2023-06-10T12:34:28;3.28;;;1.80;;
52530;SDS011;38441;52.894;6.040;2023-06-10T12:36:55;4.30;;;1.63;;
52530;SDS011;38441;52.894;6.040;2023-06-10T12:39:21;4.55;;;1.40;;
52530;SDS011;38441;52.894;6.040;2023-06-10T12:41:47;4.15;;;1.42;;
52530;SDS011;38441;52.894;6.040;2023-06-10T12:44:13;4.53;;;1.73;;
52530;SDS011;38441;52.894;6.040;2023-06-10T12:46:39;5.45;;;1.80;;
52530;SDS011;38441;52.894;6.040;2023-06-10T12:49:04;4.63;;;1.75;;
52530;SDS011;38441;52.894;6.040;2023-06-10T12:51:30;4.00;;;1.52;;
52530;SDS011;38441;52.894;6.040;2023-06-10T12:53:56;4.05;;;1.65;;
52530;SDS011;38441;52.894;6.040;2023-06-10T12:56:22;5.22;;;1.65;;
52530;SDS011;38441;52.894;6.040;2023-06-10T12:58:48;4.30;;;2.08;;
52530;SDS011;38441;52.894;6.040;2023-06-10T13:01:14;3.97;;;1.73;;
52530;SDS011;38441;52.894;6.040;2023-06-10T13:03:40;6.50;;;1.92;;
52530;SDS011;38441;52.894;6.040;2023-06-10T13:06:05;3.03;;;1.35;;
52530;SDS011;38441;52.894;6.040;2023-06-10T13:08:32;4.18;;;1.55;;
52530;SDS011;38441;52.894;6.040;2023-06-10T13:10:57;3.60;;;1.40;;
52530;SDS011;38441;52.894;6.040;2023-06-10T13:13:24;4.30;;;1.52;;
52530;SDS011;38441;52.894;6.040;2023-06-10T13:15:50;4.45;;;1.70;;
52530;SDS011;38441;52.894;6.040;2023-06-10T13:18:16;2.72;;;1.58;;
52530;SDS011;38441;52.894;6.040;2023-06-10T13:20:44;4.03;;;1.48;;
52530;SDS011;38441;52.894;6.040;2023-06-10T13:23:09;4.80;;;1.80;;
52530;SDS011;38441;52.894;6.040;2023-06-10T13:25:35;4.65;;;1.60;;
52530;SDS011;38441;52.894;6.040;2023-06-10T13:28:01;4.18;;;1.70;;
52530;SDS011;38441;52.894;6.040;2023-06-10T13:30:27;3.22;;;1.10;;
52530;SDS011;38441;52.894;6.040;2023-06-10T13:32:53;4.30;;;1.42;;
52530;SDS011;38441;52.894;6.040;2023-06-10T13:35:18;3.85;;;1.73;;
52530;SDS011;38441;52.894;6.040;2023-06-10T13:37:44;3.33;;;1.50;;
52530;SDS011;38441;52.894;6.040;2023-06-10T13:40:10;3.22;;;1.48;;
52530;SDS011;38441;52.894;6.040;2023-06-10T13:42:36;3.38;;;1.40;;
52530;SDS011;38441;52.894;6.040;2023-06-10T13:45:03;4.38;;;1.63;;
52530;SDS011;38441;52.894;6.040;2023-06-10T13:47:29;3.78;;;1.52;;
52530;SDS011;38441;52.894;6.040;2023-06-10T13:49:55;5.45;;;1.85;;
52530;SDS011;38441;52.894;6.040;2023-06-10T13:52:20;5.93;;;1.58;;
52530;SDS011;38441;52.894;6.040;2023-06-10T13:54:46;3.88;;;1.73;;
52530;SDS011;38441;52.894;6.040;2023-06-10T13:57:11;3.28;;;1.10;;
52530;SDS011;38441;52.894;6.040;2023-06-10T13:59:37;3.08;;;1.33;;
52530;SDS011;38441;52.894;6.040;2023-06-10T14:02:03;2.85;;;1.58;;
52530;SDS011;38441;52.894;6.040;2023-06-10T14:04:28;3.17;;;1.55;;
52530;SDS011;38441;52.894;6.040;2023-06-10T14:06:54;3.75;;;1.40;;
52530;SDS011;38441;52.894;6.040;2023-06-10T14:09:20;4.07;;;1.60;;
52530;SDS011;38441;52.894;6.040;2023-06-10T14:11:46;2.00;;;1.00;;
52530;SDS011;38441;52.894;6.040;2023-06-10T14:14:12;6.10;;;1.45;;
52530;SDS011;38441;52.894;6.040;2023-06-10T14:16:39;4.65;;;1.33;;
52530;SDS011;38441;52.894;6.040;2023-06-10T14:19:05;4.05;;;1.50;;
52530;SDS011;38441;52.894;6.040;2023-06-10T14:21:30;3.55;;;1.30;;
52530;SDS011;38441;52.894;6.040;2023-06-10T14:23:56;3.25;;;1.40;;
52530;SDS011;38441;52.894;6.040;2023-06-10T14:26:21;3.05;;;1.50;;
52530;SDS011;38441;52.894;6.040;2023-06-10T14:28:47;3.45;;;1.42;;
52530;SDS011;38441;52.894;6.040;2023-06-10T14:31:14;2.72;;;1.40;;
52530;SDS011;38441;52.894;6.040;2023-06-10T14:33:40;4.00;;;1.35;;
52530;SDS011;38441;52.894;6.040;2023-06-10T14:36:08;4.40;;;1.75;;
52530;SDS011;38441;52.894;6.040;2023-06-10T14:38:34;4.07;;;1.25;;
52530;SDS011;38441;52.894;6.040;2023-06-10T14:41:00;4.35;;;1.50;;
52530;SDS011;38441;52.894;6.040;2023-06-10T14:43:25;3.03;;;1.48;;
52530;SDS011;38441;52.894;6.040;2023-06-10T14:45:51;4.22;;;1.60;;
52530;SDS011;38441;52.894;6.040;2023-06-10T14:48:17;3.50;;;1.50;;
52530;SDS011;38441;52.894;6.040;2023-06-10T14:50:42;3.80;;;1.30;;
52530;SDS011;38441;52.894;6.040;2023-06-10T14:53:11;2.70;;;1.23;;
52530;SDS011;38441;52.894;6.040;2023-06-10T14:55:37;2.65;;;1.40;;
52530;SDS011;38441;52.894;6.040;2023-06-10T14:58:02;4.57;;;1.45;;
52530;SDS011;38441;52.894;6.040;2023-06-10T15:00:28;5.53;;;1.55;;
52530;SDS011;38441;52.894;6.040;2023-06-10T15:02:54;2.67;;;1.30;;
52530;SDS011;38441;52.894;6.040;2023-06-10T15:05:22;4.22;;;1.60;;